createdAt,value
2022-10-22T00:00:08.314Z,98.94
2022-10-22T00:01:08.310Z,98.94
2022-10-22T00:02:08.321Z,99.04
2022-10-22T00:03:08.347Z,99.04
2022-10-22T00:04:08.521Z,99.04
2022-10-22T00:05:08.262Z,99.04
2022-10-22T00:06:08.260Z,99.04
2022-10-22T00:07:08.249Z,99.04
2022-10-22T00:08:08.230Z,99.15
2022-10-22T00:09:08.313Z,99.15
2022-10-22T00:10:08.210Z,99.15
2022-10-22T00:11:08.231Z,99.15
2022-10-22T00:12:08.191Z,99.15
2022-10-22T00:13:08.181Z,99.15
2022-10-22T00:14:08.163Z,99.25
2022-10-22T00:15:08.191Z,99.15
2022-10-22T00:16:08.171Z,99.25
2022-10-22T00:17:11.204Z,99.15
2022-10-22T00:18:08.125Z,99.15
2022-10-22T00:19:08.110Z,99.15
2022-10-22T00:20:08.102Z,99.25
2022-10-22T00:21:08.123Z,99.15
2022-10-22T00:22:08.082Z,99.25
2022-10-22T00:23:08.072Z,99.25
2022-10-22T00:24:08.063Z,99.25
2022-10-22T00:25:08.091Z,99.25
2022-10-22T00:26:08.031Z,99.25
2022-10-22T00:27:08.030Z,99.25
2022-10-22T00:28:08.011Z,99.25
2022-10-22T00:29:08.030Z,99.25
2022-10-22T00:30:07.991Z,99.25
2022-10-22T00:31:07.982Z,99.25
2022-10-22T00:32:07.973Z,99.25
2022-10-22T00:33:07.962Z,99.25
2022-10-22T00:34:07.949Z,99.25
2022-10-22T00:35:11.291Z,99.25
2022-10-22T00:36:07.921Z,99.25
2022-10-22T00:37:07.937Z,99.25
2022-10-22T00:38:07.901Z,99.25
2022-10-22T00:39:07.900Z,99.25
2022-10-22T00:40:07.881Z,99.25
2022-10-22T00:41:07.902Z,99.15
2022-10-22T00:42:07.859Z,99.15
2022-10-22T00:43:07.850Z,99.15
2022-10-22T00:44:07.831Z,99.15
2022-10-22T00:45:07.838Z,99.15
2022-10-22T00:46:07.819Z,99.15
2022-10-22T00:47:08.209Z,99.15
2022-10-22T00:48:07.813Z,99.19
2022-10-22T00:49:07.790Z,99.19
2022-10-22T00:50:07.776Z,99.19
2022-10-22T00:51:07.771Z,99.19
2022-10-22T00:52:07.759Z,99.29
2022-10-22T00:53:07.770Z,99.29
2022-10-22T00:54:07.738Z,99.29
2022-10-22T00:55:07.730Z,99.29
2022-10-22T00:56:07.730Z,99.19
2022-10-22T00:57:07.700Z,99.19
2022-10-22T00:58:07.691Z,99.19
2022-10-22T01:00:07.671Z,99.29
2022-10-22T01:01:07.735Z,99.29
2022-10-22T01:02:07.687Z,99.29
2022-10-22T01:03:07.650Z,99.40
2022-10-22T01:04:07.621Z,99.40
2022-10-22T01:05:07.612Z,99.40
2022-10-22T01:06:07.637Z,99.50
2022-10-22T01:07:07.599Z,99.50
2022-10-22T01:08:07.639Z,99.50
2022-10-22T01:09:07.614Z,99.50
2022-10-22T01:10:07.559Z,99.45
2022-10-22T01:11:07.550Z,99.45
2022-10-22T01:12:07.586Z,99.50
2022-10-22T01:13:07.529Z,99.50
2022-10-22T01:14:07.520Z,99.55
2022-10-22T01:15:07.510Z,99.60
2022-10-22T01:16:07.530Z,99.60
2022-10-22T01:17:07.623Z,99.60
2022-10-22T01:18:07.469Z,99.55
2022-10-22T01:19:07.470Z,99.50
2022-10-22T01:20:07.461Z,99.40
2022-10-22T01:21:07.440Z,99.40
2022-10-22T01:22:07.429Z,99.40
2022-10-22T01:23:07.449Z,99.40
2022-10-22T01:24:07.415Z,99.40
2022-10-22T01:25:07.399Z,99.50
2022-10-22T01:26:07.389Z,99.50
2022-10-22T01:27:07.449Z,99.40
2022-10-22T01:28:07.370Z,99.40
2022-10-22T01:29:07.348Z,99.40
2022-10-22T01:30:07.349Z,99.40
2022-10-22T01:31:07.329Z,99.40
2022-10-22T01:32:07.979Z,99.40
2022-10-22T01:33:07.319Z,99.40
2022-10-22T01:34:07.300Z,99.40
2022-10-22T01:35:07.288Z,99.40
2022-10-22T01:36:07.289Z,99.40
2022-10-22T01:37:07.269Z,99.40
2022-10-22T01:38:07.309Z,99.40
2022-10-22T01:39:07.249Z,99.40
2022-10-22T01:40:07.259Z,99.40
2022-10-22T01:41:07.227Z,99.50
2022-10-22T01:42:07.220Z,99.40
2022-10-22T01:43:07.211Z,99.50
2022-10-22T01:44:07.218Z,99.50
2022-10-22T01:45:07.178Z,99.50
2022-10-22T01:46:07.182Z,99.50
2022-10-22T01:47:07.161Z,99.50
2022-10-22T01:48:07.149Z,99.50
2022-10-22T01:49:07.179Z,99.40
2022-10-22T01:50:07.130Z,99.40
2022-10-22T01:51:07.118Z,99.40
2022-10-22T01:52:07.128Z,99.40
2022-10-22T01:53:07.089Z,99.40
2022-10-22T01:54:07.092Z,99.40
2022-10-22T01:55:07.125Z,99.40
2022-10-22T01:56:07.066Z,99.40
2022-10-22T01:57:07.049Z,99.40
2022-10-22T01:58:07.038Z,99.40
2022-10-22T01:59:07.027Z,99.40
2022-10-22T02:00:07.109Z,99.50
2022-10-22T02:01:07.084Z,99.40
2022-10-22T02:02:07.000Z,99.40
2022-10-22T02:03:07.027Z,99.50
2022-10-22T02:04:06.984Z,99.50
2022-10-22T02:05:06.969Z,99.40
2022-10-22T02:06:06.958Z,99.40
2022-10-22T02:07:06.960Z,99.40
2022-10-22T02:08:06.938Z,99.29
2022-10-22T02:09:07.064Z,99.40
2022-10-22T02:10:06.918Z,99.40
2022-10-22T02:11:06.909Z,99.40
2022-10-22T02:12:06.899Z,99.40
2022-10-22T02:13:06.898Z,99.40
2022-10-22T02:14:06.897Z,99.40
2022-10-22T02:15:06.859Z,99.40
2022-10-22T02:16:06.857Z,99.40
2022-10-22T02:17:06.837Z,99.40
2022-10-22T02:18:06.827Z,99.29
2022-10-22T02:19:06.846Z,99.34
2022-10-22T02:20:06.808Z,99.34
2022-10-22T02:22:06.787Z,99.34
2022-10-22T02:23:06.769Z,99.34
2022-10-22T02:24:06.767Z,99.34
2022-10-22T02:25:06.780Z,99.34
2022-10-22T02:26:06.748Z,99.44
2022-10-22T02:27:06.727Z,99.34
2022-10-22T02:28:06.737Z,99.44
2022-10-22T02:29:06.707Z,99.44
2022-10-22T02:30:06.912Z,99.44
2022-10-22T02:31:06.686Z,99.44
2022-10-22T02:32:06.687Z,99.44
2022-10-22T02:33:06.659Z,99.44
2022-10-22T02:34:06.687Z,99.44
2022-10-22T02:35:06.648Z,99.44
2022-10-22T02:36:06.628Z,99.44
2022-10-22T02:37:06.617Z,99.44
2022-10-22T02:38:06.610Z,99.44
2022-10-22T02:39:06.646Z,99.44
2022-10-22T02:40:06.588Z,99.44
2022-10-22T02:41:06.576Z,99.44
2022-10-22T02:42:06.657Z,99.44
2022-10-22T02:43:06.589Z,99.44
2022-10-22T02:44:06.551Z,99.44
2022-10-22T02:45:06.537Z,99.44
2022-10-22T02:46:06.527Z,99.44
2022-10-22T02:47:06.506Z,99.34
2022-10-22T02:48:06.512Z,99.44
2022-10-22T02:49:06.527Z,99.34
2022-10-22T02:50:09.434Z,99.34
2022-10-22T02:51:06.469Z,99.34
2022-10-22T02:52:06.466Z,99.34
2022-10-22T02:53:06.446Z,99.34
2022-10-22T02:54:06.446Z,99.34
2022-10-22T02:55:06.457Z,99.34
2022-10-22T02:56:06.417Z,99.34
2022-10-22T02:57:06.397Z,99.34
2022-10-22T02:58:06.397Z,99.34
2022-10-22T02:59:06.386Z,99.34
2022-10-22T03:00:06.377Z,99.34
2022-10-22T03:01:06.461Z,99.34
2022-10-22T03:02:06.391Z,99.34
2022-10-22T03:03:06.349Z,99.34
2022-10-22T03:04:06.345Z,99.34
2022-10-22T03:05:06.321Z,99.34
2022-10-22T03:06:06.309Z,99.34
2022-10-22T03:07:06.327Z,99.34
2022-10-22T03:08:06.296Z,99.34
2022-10-22T03:09:06.318Z,99.44
2022-10-22T03:10:06.267Z,99.44
2022-10-22T03:11:06.255Z,99.44
2022-10-22T03:12:06.247Z,99.44
2022-10-22T03:13:06.258Z,99.44
2022-10-22T03:14:06.226Z,99.44
2022-10-22T03:15:06.276Z,99.44
2022-10-22T03:16:06.208Z,99.44
2022-10-22T03:17:06.187Z,99.54
2022-10-22T03:18:06.176Z,99.54
2022-10-22T03:19:06.165Z,99.54
2022-10-22T03:20:06.160Z,99.54
2022-10-22T03:21:06.196Z,99.54
2022-10-22T03:22:06.145Z,99.54
2022-10-22T03:23:06.146Z,99.54
2022-10-22T03:24:06.116Z,99.54
2022-10-22T03:25:06.096Z,99.54
2022-10-22T03:26:06.123Z,99.65
2022-10-22T03:27:06.106Z,99.65
2022-10-22T03:28:06.068Z,99.65
2022-10-22T03:29:06.096Z,99.65
2022-10-22T03:30:06.047Z,99.65
2022-10-22T03:31:06.035Z,99.65
2022-10-22T03:32:06.026Z,99.65
2022-10-22T03:33:06.017Z,99.65
2022-10-22T03:34:06.005Z,99.65
2022-10-22T03:35:06.055Z,99.65
2022-10-22T03:36:05.985Z,99.65
2022-10-22T03:37:05.973Z,99.65
2022-10-22T03:38:05.967Z,99.65
2022-10-22T03:39:05.946Z,99.54
2022-10-22T03:40:05.947Z,99.54
2022-10-22T03:41:05.965Z,99.44
2022-10-22T03:42:05.954Z,99.44
2022-10-22T03:43:05.935Z,99.49
2022-10-22T03:44:05.895Z,99.49
2022-10-22T03:45:05.887Z,99.49
2022-10-22T03:46:05.907Z,99.49
2022-10-22T03:47:05.871Z,99.49
2022-10-22T03:48:05.856Z,99.49
2022-10-22T03:49:05.837Z,99.49
2022-10-22T03:50:05.855Z,99.39
2022-10-22T03:51:05.818Z,99.39
2022-10-22T03:52:05.816Z,99.39
2022-10-22T03:53:05.845Z,99.29
2022-10-22T03:54:05.786Z,99.29
2022-10-22T03:55:05.793Z,99.29
2022-10-22T03:56:05.764Z,99.29
2022-10-22T03:57:05.755Z,99.29
2022-10-22T03:58:05.746Z,99.39
2022-10-22T03:59:05.776Z,99.39
2022-10-22T04:00:05.727Z,99.39
2022-10-22T04:01:05.737Z,99.39
2022-10-22T04:02:05.704Z,99.29
2022-10-22T04:03:05.684Z,99.29
2022-10-22T04:04:05.684Z,99.29
2022-10-22T04:05:05.735Z,99.29
2022-10-22T04:06:05.764Z,99.29
2022-10-22T04:07:05.644Z,99.39
2022-10-22T04:08:05.696Z,99.39
2022-10-22T04:09:05.723Z,99.39
2022-10-22T04:10:05.644Z,99.49
2022-10-22T04:11:05.618Z,99.49
2022-10-22T04:12:05.635Z,99.49
2022-10-22T04:13:05.584Z,99.59
2022-10-22T04:14:05.596Z,99.79
2022-10-22T04:15:05.555Z,99.75
2022-10-22T04:16:05.554Z,99.95
2022-10-22T04:17:05.543Z,99.99
2022-10-22T04:18:05.594Z,99.99
2022-10-22T04:19:05.523Z,99.99
2022-10-22T04:20:05.504Z,99.99
2022-10-22T04:21:05.494Z,99.99
2022-10-22T04:22:05.494Z,99.99
2022-10-22T04:23:05.474Z,99.99
2022-10-22T04:24:05.494Z,99.95
2022-10-22T04:25:05.461Z,99.95
2022-10-22T04:26:05.444Z,99.90
2022-10-22T04:27:05.465Z,99.99
2022-10-22T04:28:05.424Z,99.99
2022-10-22T04:29:05.412Z,99.99
2022-10-22T04:30:05.406Z,99.95
2022-10-22T04:31:05.384Z,99.95
2022-10-22T04:32:05.388Z,99.90
2022-10-22T04:33:05.806Z,99.90
2022-10-22T04:34:05.365Z,99.79
2022-10-22T04:35:05.345Z,99.90
2022-10-22T04:36:05.334Z,99.90
2022-10-22T04:37:05.354Z,99.75
2022-10-22T04:38:05.316Z,99.75
2022-10-22T04:39:05.304Z,99.75
2022-10-22T04:40:05.294Z,99.75
2022-10-22T04:41:05.283Z,99.75
2022-10-22T04:42:05.303Z,99.65
2022-10-22T04:43:05.264Z,99.65
2022-10-22T04:44:05.254Z,99.65
2022-10-22T04:45:05.234Z,99.59
2022-10-22T04:46:05.234Z,99.59
2022-10-22T04:47:05.215Z,99.49
2022-10-22T04:48:05.233Z,99.49
2022-10-22T04:49:05.194Z,99.39
2022-10-22T04:50:05.218Z,99.49
2022-10-22T04:51:05.173Z,99.49
2022-10-22T04:52:05.213Z,99.49
2022-10-22T04:53:05.182Z,99.49
2022-10-22T04:54:05.144Z,99.49
2022-10-22T04:55:05.124Z,99.49
2022-10-22T04:56:05.124Z,99.49
2022-10-22T04:57:05.103Z,99.39
2022-10-22T04:58:05.101Z,99.39
2022-10-22T04:59:05.162Z,99.29
2022-10-22T05:00:05.075Z,99.29
2022-10-22T05:01:05.118Z,99.29
2022-10-22T05:02:05.064Z,99.29
2022-10-22T05:03:05.043Z,99.29
2022-10-22T05:04:05.032Z,99.29
2022-10-22T05:05:05.061Z,99.29
2022-10-22T05:06:05.027Z,99.29
2022-10-22T05:07:05.005Z,99.18
2022-10-22T05:08:05.023Z,99.29
2022-10-22T05:09:05.030Z,99.29
2022-10-22T05:10:04.972Z,99.39
2022-10-22T05:11:04.983Z,99.39
2022-10-22T05:12:04.951Z,99.39
2022-10-22T05:13:04.962Z,99.49
2022-10-22T05:14:04.936Z,99.59
2022-10-22T05:15:04.947Z,99.69
2022-10-22T05:16:04.902Z,99.65
2022-10-22T05:17:04.894Z,99.75
2022-10-22T05:18:04.884Z,99.75
2022-10-22T05:19:04.935Z,99.85
2022-10-22T05:20:04.863Z,99.85
2022-10-22T05:21:04.852Z,99.85
2022-10-22T05:22:04.841Z,99.95
2022-10-22T05:23:04.834Z,99.85
2022-10-22T05:24:04.823Z,99.85
2022-10-22T05:25:04.842Z,99.75
2022-10-22T05:26:04.802Z,99.75
2022-10-22T05:27:04.867Z,99.65
2022-10-22T05:28:04.774Z,99.44
2022-10-22T05:29:04.762Z,99.44
2022-10-22T05:30:04.751Z,99.34
2022-10-22T05:31:04.769Z,99.34
2022-10-22T05:32:04.762Z,99.39
2022-10-22T05:33:04.733Z,99.39
2022-10-22T05:34:04.711Z,99.44
2022-10-22T05:35:04.691Z,99.44
2022-10-22T05:36:06.393Z,99.44
2022-10-22T05:37:04.682Z,99.44
2022-10-22T05:38:04.665Z,99.54
2022-10-22T05:39:04.652Z,99.65
2022-10-22T05:40:19.021Z,99.65
2022-10-22T05:41:05.643Z,99.65
2022-10-22T05:42:04.672Z,99.65
2022-10-22T05:43:04.611Z,99.65
2022-10-22T05:44:04.621Z,99.65
2022-10-22T05:45:04.591Z,99.54
2022-10-22T05:46:04.581Z,99.54
2022-10-22T05:47:04.600Z,99.44
2022-10-22T05:48:04.552Z,99.39
2022-10-22T05:49:04.552Z,99.49
2022-10-22T05:50:04.590Z,99.39
2022-10-22T05:51:04.527Z,99.29
2022-10-22T05:52:04.512Z,99.29
2022-10-22T05:53:04.550Z,99.29
2022-10-22T05:54:04.501Z,99.29
2022-10-22T05:55:04.482Z,99.18
2022-10-22T05:56:04.471Z,99.18
2022-10-22T05:57:04.499Z,99.08
2022-10-22T05:58:04.442Z,99.08
2022-10-22T05:59:04.549Z,99.08
2022-10-22T06:00:04.431Z,98.98
2022-10-22T06:01:06.456Z,99.08
2022-10-22T06:02:04.446Z,99.08
2022-10-22T06:03:04.405Z,99.08
2022-10-22T06:04:04.410Z,99.29
2022-10-22T06:05:04.382Z,99.29
2022-10-22T06:06:04.360Z,99.39
2022-10-22T06:07:04.371Z,99.39
2022-10-22T06:08:04.341Z,99.39
2022-10-22T06:09:04.532Z,99.39
2022-10-22T06:10:04.331Z,99.39
2022-10-22T06:11:04.310Z,99.39
2022-10-22T06:12:04.312Z,99.49
2022-10-22T06:13:04.283Z,99.49
2022-10-22T06:14:04.271Z,99.59
2022-10-22T06:15:04.340Z,99.54
2022-10-22T06:16:04.253Z,99.54
2022-10-22T06:17:04.241Z,99.65
2022-10-22T06:18:04.348Z,99.54
2022-10-22T06:19:04.221Z,99.54
2022-10-22T06:21:05.282Z,99.54
2022-10-22T06:22:04.181Z,99.54
2022-10-22T06:23:04.183Z,99.44
2022-10-22T06:24:04.161Z,99.44
2022-10-22T06:25:04.192Z,99.39
2022-10-22T06:26:04.153Z,99.39
2022-10-22T06:27:04.139Z,99.29
2022-10-22T06:28:04.121Z,99.39
2022-10-22T06:29:04.117Z,99.29
2022-10-22T06:30:04.102Z,99.34
2022-10-22T06:31:04.122Z,99.24
2022-10-22T06:32:04.089Z,99.24
2022-10-22T06:33:04.077Z,99.24
2022-10-22T06:34:04.062Z,99.14
2022-10-22T06:35:04.063Z,99.14
2022-10-22T06:36:06.768Z,99.04
2022-10-22T06:37:04.061Z,99.04
2022-10-22T06:38:04.014Z,99.04
2022-10-22T06:39:04.079Z,99.04
2022-10-22T06:40:04.001Z,99.14
2022-10-22T06:41:03.992Z,99.14
2022-10-22T06:42:04.046Z,99.24
2022-10-22T06:43:03.970Z,99.24
2022-10-22T06:44:03.970Z,99.34
2022-10-22T06:45:03.977Z,99.34
2022-10-22T06:46:03.931Z,99.44
2022-10-22T06:47:03.919Z,99.44
2022-10-22T06:48:03.910Z,99.54
2022-10-22T06:49:03.910Z,99.54
2022-10-22T06:50:03.919Z,99.65
2022-10-22T06:51:03.890Z,99.65
2022-10-22T06:52:03.869Z,99.70
2022-10-22T06:53:03.899Z,99.60
2022-10-22T06:54:03.843Z,99.60
2022-10-22T06:55:03.841Z,99.60
2022-10-22T06:56:03.850Z,99.70
2022-10-22T06:57:03.848Z,99.70
2022-10-22T06:58:03.799Z,99.80
2022-10-22T06:59:03.842Z,99.91
2022-10-22T07:00:03.779Z,99.91
2022-10-22T07:01:03.806Z,99.86
2022-10-22T07:02:03.808Z,99.96
2022-10-22T07:03:03.750Z,99.99
2022-10-22T07:04:03.742Z,99.99
2022-10-22T07:05:03.730Z,99.99
2022-10-22T07:06:03.728Z,99.99
2022-10-22T07:07:03.710Z,99.99
2022-10-22T07:08:03.722Z,99.99
2022-10-22T07:09:03.800Z,99.99
2022-10-22T07:10:03.759Z,99.99
2022-10-22T07:11:03.669Z,99.99
2022-10-22T07:12:03.659Z,99.99
2022-10-22T07:13:03.649Z,99.99
2022-10-22T07:14:03.768Z,99.99
2022-10-22T07:15:03.629Z,99.99
2022-10-22T07:16:03.598Z,99.99
2022-10-22T07:17:10.029Z,99.99
2022-10-22T07:18:03.580Z,99.99
2022-10-22T07:19:03.579Z,99.99
2022-10-22T07:20:03.561Z,99.99
2022-10-22T07:21:03.659Z,99.99
2022-10-22T07:22:03.880Z,99.99
2022-10-22T07:23:03.538Z,99.99
2022-10-22T07:24:03.518Z,99.99
2022-10-22T07:25:06.583Z,99.99
2022-10-22T07:26:03.497Z,99.99
2022-10-22T07:27:05.106Z,99.99
2022-10-22T07:28:03.500Z,99.99
2022-10-22T07:29:03.472Z,99.99
2022-10-22T07:30:03.457Z,99.99
2022-10-22T07:31:03.439Z,99.99
2022-10-22T07:32:03.429Z,99.99
2022-10-22T07:33:03.463Z,99.99
2022-10-22T07:34:03.427Z,99.99
2022-10-22T07:35:03.399Z,99.99
2022-10-22T07:36:03.389Z,99.99
2022-10-22T07:37:03.389Z,99.99
2022-10-22T07:38:03.360Z,99.99
2022-10-22T07:39:03.389Z,99.99
2022-10-22T07:40:04.150Z,99.99
2022-10-22T07:41:10.669Z,99.99
2022-10-22T07:42:03.322Z,99.99
2022-10-22T07:43:03.335Z,99.99
2022-10-22T07:44:12.409Z,99.99
2022-10-22T07:45:03.289Z,99.99
2022-10-22T07:46:03.299Z,99.99
2022-10-22T07:47:03.269Z,99.99
2022-10-22T07:48:03.286Z,99.99
2022-10-22T07:49:03.270Z,99.99
2022-10-22T07:50:03.255Z,99.99
2022-10-22T07:51:03.224Z,99.99
2022-10-22T07:52:03.268Z,99.99
2022-10-22T07:53:03.237Z,99.99
2022-10-22T07:54:03.189Z,99.99
2022-10-22T07:55:03.199Z,99.99
2022-10-22T07:56:03.167Z,99.99
2022-10-22T07:57:03.178Z,99.99
2022-10-22T07:58:03.137Z,99.99
2022-10-22T07:59:03.139Z,99.99
2022-10-22T08:00:03.120Z,99.99
2022-10-22T08:01:03.172Z,99.99
2022-10-22T08:02:04.128Z,99.99
2022-10-22T08:03:03.096Z,99.99
2022-10-22T08:04:03.081Z,99.99
2022-10-22T08:05:03.069Z,99.99
2022-10-22T08:06:03.061Z,99.99
2022-10-22T08:07:03.050Z,99.99
2022-10-22T08:08:08.919Z,99.99
2022-10-22T08:09:03.093Z,99.99
2022-10-22T08:10:03.009Z,99.99
2022-10-22T08:11:03.008Z,99.99
2022-10-22T08:12:03.004Z,99.95
2022-10-22T08:13:02.979Z,99.75
2022-10-22T08:15:16.838Z,99.35
2022-10-22T08:16:13.327Z,99.24
2022-10-22T08:17:13.320Z,99.10
2022-10-22T08:18:13.319Z,98.99
2022-10-22T08:19:13.299Z,98.90
2022-10-22T08:20:13.318Z,98.79
2022-10-22T08:21:13.270Z,98.69
2022-10-22T08:22:13.299Z,98.49
2022-10-22T08:23:13.249Z,98.24
2022-10-22T08:24:13.629Z,97.83
2022-10-22T08:25:13.227Z,97.33
2022-10-22T08:26:13.220Z,96.72
2022-10-22T08:27:13.198Z,96.31
2022-10-22T08:28:13.190Z,95.91
2022-10-22T08:29:13.231Z,95.61
2022-10-22T08:30:13.177Z,95.20
2022-10-22T08:31:13.169Z,95.10
2022-10-22T08:32:13.219Z,95.00
2022-10-22T08:33:15.419Z,94.65
2022-10-22T08:34:13.138Z,94.39
2022-10-22T08:35:15.437Z,94.04
2022-10-22T08:36:13.138Z,93.84
2022-10-22T08:37:13.108Z,93.43
2022-10-22T08:38:13.089Z,93.03
2022-10-22T08:39:13.079Z,92.63
2022-10-22T08:40:13.069Z,92.02
2022-10-22T08:41:13.050Z,91.71
2022-10-22T08:42:13.070Z,91.51
2022-10-22T08:43:13.029Z,91.41
2022-10-22T08:44:13.017Z,91.41
2022-10-22T08:45:13.007Z,91.51
2022-10-22T08:46:13.050Z,91.51
2022-10-22T08:47:13.106Z,91.11
2022-10-22T08:48:13.017Z,91.00
2022-10-22T08:49:12.980Z,90.91
2022-10-22T08:50:12.970Z,90.91
2022-10-22T08:51:12.950Z,90.80
2022-10-22T08:52:12.956Z,90.80
2022-10-22T08:53:12.931Z,90.76
2022-10-22T08:54:13.029Z,90.76
2022-10-22T08:55:12.912Z,90.86
2022-10-22T08:56:12.919Z,90.96
2022-10-22T08:57:12.930Z,91.16
2022-10-22T08:58:12.911Z,90.96
2022-10-22T08:59:12.902Z,90.66
2022-10-22T09:00:12.940Z,90.36
2022-10-22T09:01:12.952Z,90.16
2022-10-22T09:02:12.881Z,89.75
2022-10-22T09:03:12.899Z,89.14
2022-10-22T09:04:12.870Z,88.74
2022-10-22T09:05:12.831Z,89.04
2022-10-22T09:06:12.821Z,88.64
2022-10-22T09:07:12.820Z,88.33
2022-10-22T09:08:12.874Z,88.53
2022-10-22T09:09:12.967Z,88.33
2022-10-22T09:10:12.922Z,87.82
2022-10-22T09:11:12.933Z,88.13
2022-10-22T09:12:17.549Z,88.02
2022-10-22T09:13:13.802Z,87.93
2022-10-22T09:14:12.878Z,88.02
2022-10-22T09:15:16.342Z,87.93
2022-10-22T09:16:12.912Z,87.73
2022-10-22T09:17:12.815Z,87.73
2022-10-22T09:18:12.870Z,87.62
2022-10-22T09:19:12.819Z,87.62
2022-10-22T09:20:12.783Z,87.52
2022-10-22T09:21:12.794Z,87.52
2022-10-22T09:22:12.704Z,87.73
2022-10-22T09:23:12.656Z,87.73
2022-10-22T09:24:12.714Z,87.82
2022-10-22T09:25:12.872Z,87.79
2022-10-22T09:26:12.729Z,87.79
2022-10-22T09:27:12.613Z,87.52
2022-10-22T09:28:12.705Z,87.02
2022-10-22T09:29:12.671Z,86.77
2022-10-22T09:30:12.714Z,86.98
2022-10-22T09:31:12.541Z,86.98
2022-10-22T09:32:12.559Z,86.87
2022-10-22T09:33:12.553Z,87.68
2022-10-22T09:34:12.507Z,87.48
2022-10-22T09:35:16.866Z,87.28
2022-10-22T09:36:12.529Z,86.87
2022-10-22T09:37:12.469Z,86.27
2022-10-22T09:38:12.478Z,86.37
2022-10-22T09:39:12.507Z,86.27
2022-10-22T09:40:12.440Z,86.47
2022-10-22T09:41:12.459Z,86.37
2022-10-22T09:42:12.408Z,86.27
2022-10-22T09:43:12.399Z,86.27
2022-10-22T09:44:12.384Z,86.43
2022-10-22T09:45:12.389Z,86.13
2022-10-22T09:46:12.416Z,85.52
2022-10-22T09:47:12.399Z,85.52
2022-10-22T09:48:12.493Z,85.82
2022-10-22T09:49:12.380Z,85.82
2022-10-22T09:50:12.350Z,85.42
2022-10-22T09:51:12.393Z,85.82
2022-10-22T09:52:12.327Z,86.02
2022-10-22T09:53:12.308Z,85.72
2022-10-22T09:54:12.378Z,85.82
2022-10-22T09:55:12.280Z,84.91
2022-10-22T09:56:12.300Z,84.71
2022-10-22T09:57:12.280Z,84.91
2022-10-22T09:58:12.261Z,85.22
2022-10-22T09:59:12.299Z,85.02
2022-10-22T10:00:12.251Z,84.71
2022-10-22T10:01:12.220Z,84.61
2022-10-22T10:02:20.313Z,84.81
2022-10-22T10:03:13.258Z,84.61
2022-10-22T10:04:12.287Z,84.51
2022-10-22T10:05:12.172Z,84.81
2022-10-22T10:06:12.172Z,84.61
2022-10-22T10:07:12.172Z,84.41
2022-10-22T10:08:12.141Z,84.61
2022-10-22T10:09:12.235Z,84.41
2022-10-22T10:10:12.126Z,84.31
2022-10-22T10:11:12.133Z,84.31
2022-10-22T10:12:12.091Z,84.51
2022-10-22T10:13:12.160Z,84.20
2022-10-22T10:14:12.131Z,83.70
2022-10-22T10:15:12.100Z,83.70
2022-10-22T10:16:12.091Z,83.90
2022-10-22T10:17:12.164Z,83.70
2022-10-22T10:18:12.048Z,83.60
2022-10-22T10:19:19.064Z,83.40
2022-10-22T10:20:12.233Z,83.29
2022-10-22T10:21:12.202Z,83.66
2022-10-22T10:22:12.127Z,83.76
2022-10-22T10:23:12.018Z,83.56
2022-10-22T10:24:12.074Z,83.56
2022-10-22T10:25:15.243Z,83.36
2022-10-22T10:26:11.993Z,83.05
2022-10-22T10:27:12.045Z,82.45
2022-10-22T10:28:12.060Z,82.45
2022-10-22T10:29:11.929Z,82.24
2022-10-22T10:30:11.946Z,82.55
2022-10-22T10:31:11.930Z,82.45
2022-10-22T10:32:12.014Z,82.35
2022-10-22T10:33:11.899Z,82.45
2022-10-22T10:34:11.966Z,82.65
2022-10-22T10:35:11.998Z,82.65
2022-10-22T10:36:11.893Z,82.65
2022-10-22T10:37:12.525Z,82.65
2022-10-22T10:38:11.875Z,82.85
2022-10-22T10:39:11.948Z,83.15
2022-10-22T10:40:11.851Z,83.15
2022-10-22T10:41:11.786Z,82.85
2022-10-22T10:42:11.848Z,82.85
2022-10-22T10:43:11.855Z,82.75
2022-10-22T10:44:11.764Z,82.45
2022-10-22T10:45:11.917Z,82.45
2022-10-22T10:46:11.842Z,82.55
2022-10-22T10:47:11.780Z,82.55
2022-10-22T10:48:11.801Z,82.55
2022-10-22T10:49:11.818Z,82.35
2022-10-22T10:50:11.719Z,82.14
2022-10-22T10:51:11.768Z,81.94
2022-10-22T10:52:11.739Z,81.90
2022-10-22T10:53:11.697Z,81.70
2022-10-22T10:54:11.729Z,81.40
2022-10-22T10:55:11.648Z,81.50
2022-10-22T10:56:11.761Z,81.20
2022-10-22T10:57:11.661Z,81.30
2022-10-22T10:58:11.674Z,81.30
2022-10-22T10:59:11.672Z,80.90
2022-10-22T11:00:11.649Z,80.99
2022-10-22T11:01:11.628Z,80.99
2022-10-22T11:02:11.640Z,80.99
2022-10-22T11:03:11.610Z,81.10
2022-10-22T11:04:11.542Z,80.90
2022-10-22T11:05:11.548Z,80.49
2022-10-22T11:06:11.516Z,80.79
2022-10-22T11:07:23.060Z,81.10
2022-10-22T11:08:12.529Z,80.99
2022-10-22T11:09:11.554Z,80.90
2022-10-22T11:10:11.493Z,80.90
2022-10-22T11:11:11.522Z,80.96
2022-10-22T11:12:11.497Z,81.36
2022-10-22T11:13:11.528Z,81.16
2022-10-22T11:14:11.603Z,80.55
2022-10-22T11:15:11.565Z,80.96
2022-10-22T11:16:11.428Z,80.85
2022-10-22T11:17:11.438Z,80.65
2022-10-22T11:18:11.458Z,80.65
2022-10-22T11:19:15.510Z,80.55
2022-10-22T11:20:12.448Z,80.55
2022-10-22T11:21:11.442Z,80.85
2022-10-22T11:22:11.390Z,80.45
2022-10-22T11:23:20.801Z,80.25
2022-10-22T11:24:17.032Z,80.45
2022-10-22T11:25:11.369Z,80.15
2022-10-22T11:26:11.433Z,80.35
2022-10-22T11:27:11.456Z,80.35
2022-10-22T11:28:11.603Z,80.45
2022-10-22T11:29:11.435Z,80.65
2022-10-22T11:30:11.320Z,80.45
2022-10-22T11:31:11.334Z,80.55
2022-10-22T11:32:11.560Z,80.76
2022-10-22T11:33:11.252Z,80.76
2022-10-22T11:34:32.061Z,80.85
2022-10-22T11:35:12.259Z,80.25
2022-10-22T11:36:11.202Z,80.05
2022-10-22T11:37:11.201Z,80.25
2022-10-22T11:38:11.299Z,79.85
2022-10-22T11:39:11.215Z,79.74
2022-10-22T11:40:11.274Z,79.24
2022-10-22T11:41:11.161Z,79.34
2022-10-22T11:42:11.181Z,79.54
2022-10-22T11:43:11.152Z,79.44
2022-10-22T11:44:11.194Z,79.64
2022-10-22T11:45:11.271Z,79.54
2022-10-22T11:46:11.183Z,79.85
2022-10-22T11:47:11.103Z,79.94
2022-10-22T11:48:11.122Z,80.05
2022-10-22T11:49:11.122Z,79.94
2022-10-22T11:50:11.066Z,79.85
2022-10-22T11:51:11.134Z,79.54
2022-10-22T11:52:11.067Z,79.61
2022-10-22T11:54:11.004Z,78.94
2022-10-22T11:55:11.080Z,78.84
2022-10-22T11:56:11.081Z,78.84
2022-10-22T11:57:11.046Z,78.84
2022-10-22T11:58:11.049Z,78.63
2022-10-22T11:59:11.079Z,78.94
2022-10-22T12:00:10.971Z,79.14
2022-10-22T12:01:11.059Z,79.44
2022-10-22T12:02:10.986Z,79.34
2022-10-22T12:03:10.943Z,79.64
2022-10-22T12:04:11.020Z,79.54
2022-10-22T12:05:10.987Z,79.74
2022-10-22T12:06:10.918Z,79.48
2022-10-22T12:07:10.867Z,79.38
2022-10-22T12:08:14.847Z,79.17
2022-10-22T12:09:10.931Z,79.48
2022-10-22T12:10:12.150Z,79.68
2022-10-22T12:11:10.830Z,79.88
2022-10-22T12:12:10.846Z,80.08
2022-10-22T12:13:11.073Z,80.19
2022-10-22T12:14:10.912Z,80.08
2022-10-22T12:15:10.851Z,80.19
2022-10-22T12:16:12.891Z,80.49
2022-10-22T12:17:10.855Z,80.59
2022-10-22T12:18:10.792Z,80.69
2022-10-22T12:19:10.713Z,80.49
2022-10-22T12:20:10.754Z,80.59
2022-10-22T12:21:10.775Z,80.99
2022-10-22T12:22:10.692Z,80.99
2022-10-22T12:23:10.830Z,80.99
2022-10-22T12:24:10.855Z,81.20
2022-10-22T12:25:10.716Z,80.79
2022-10-22T12:26:10.802Z,80.39
2022-10-22T12:27:13.468Z,80.29
2022-10-22T12:28:10.776Z,80.29
2022-10-22T12:29:10.693Z,80.29
2022-10-22T12:30:10.724Z,80.19
2022-10-22T12:31:10.754Z,80.08
2022-10-22T12:32:10.680Z,80.19
2022-10-22T12:33:10.679Z,80.39
2022-10-22T12:34:10.642Z,79.88
2022-10-22T12:35:10.653Z,79.79
2022-10-22T12:36:10.920Z,79.79
2022-10-22T12:37:10.791Z,79.68
2022-10-22T12:38:10.556Z,79.79
2022-10-22T12:39:10.566Z,79.17
2022-10-22T12:40:10.537Z,79.08
2022-10-22T12:41:10.648Z,79.34
2022-10-22T12:42:10.627Z,79.34
2022-10-22T12:44:10.542Z,78.53
2022-10-22T12:45:10.527Z,78.43
2022-10-22T12:46:10.658Z,78.63
2022-10-22T12:47:10.509Z,78.74
2022-10-22T12:48:10.568Z,78.63
2022-10-22T12:49:10.547Z,78.63
2022-10-22T12:50:10.489Z,79.04
2022-10-22T12:51:10.620Z,78.74
2022-10-22T12:52:13.334Z,78.53
2022-10-22T12:53:10.428Z,78.94
2022-10-22T12:54:10.386Z,78.84
2022-10-22T12:55:10.369Z,78.94
2022-10-22T12:56:10.325Z,78.84
2022-10-22T12:57:10.487Z,78.94
2022-10-22T12:58:10.480Z,78.43